Flight Track Log - Related Links

Times and Time Zones

All times are in EDT time to prevent confusion due to time zone crossing. See the SKW6492 flight status page for this flight to view local times or setup timezone preferences in your user account.

Time Position Orientation Groundspeed Altitude Reporting Facility
EDT Latitude Longitude Course Direction KTS MPH feet Rate Location/Type
Sun 09:46:52 PM 39.8667 -104.8000 348° North 222 255 7,600  Level Denver TRACON
Sun 09:47:52 PM 39.9000 -104.8833 298° West 287 330 9,500 1,934 Climbing Denver TRACON
Sun 09:48:00 PM 40.1709 -104.7729 347° North  Level FlightAware Approximate
Sun 09:48:53 PM 39.9667 -104.9333 330° Northwest 306 352 11,500  Level Denver TRACON
Sun 09:49:00 PM 40.2786 -104.8052 347° North  Level FlightAware Approximate
Sun 09:49:53 PM 40.0667 -104.9333 360° North 331 381 13,100  Level Denver TRACON
Sun 09:50:00 PM 40.3860 -104.8398 346° North  Level FlightAware Approximate
Sun 09:50:47 PM 40.1333 -104.9167 11° North 335 386 14,800  Level Denver TRACON
Sun 09:51:00 PM 40.4932 -104.8755 346° North  Level FlightAware Approximate
Sun 09:52:00 PM 40.6011 -104.9074 348° North  Level FlightAware Approximate
Sun 09:52:16 PM 40.2819 -104.9069 North 344 396 17,200  Level Denver Center
Sun 09:53:18 PM 40.3825 -104.8944 North 363 418 18,600 1,171 Climbing Denver Center
Sun 09:54:19 PM 40.4686 -104.8881 North 369 425 19,600 1,220 Climbing Denver Center
Sun 09:55:21 PM 40.5986 -104.8722 North 380 437 21,100 1,258 Climbing Denver Center
Sun 09:56:23 PM 40.7142 -104.8631 North 387 445 22,200 1,065 Climbing Denver Center
Sun 09:57:25 PM 40.8253 -104.8694 358° North 388 447 23,300 919 Climbing Denver Center
Sun 09:58:27 PM 40.9253 -104.9164 340° North 383 441 24,100 774 Climbing Denver Center
Sun 09:59:29 PM 41.0219 -104.9661 339° North 390 449 24,900 829 Climbing Denver Center
Sun 10:00:30 PM 41.1383 -105.0214 340° North 398 458 25,800 829 Climbing Denver Center
Sun 10:01:32 PM 41.2378 -105.0717 339° North 399 459 26,600 726 Climbing Denver Center
Sun 10:02:34 PM 41.3542 -105.1294 340° North 399 459 27,300 677 Climbing Denver Center
Sun 10:03:36 PM 41.4553 -105.1825 339° North 405 466 28,000 581 Climbing Denver Center
Sun 10:04:38 PM 41.5581 -105.2342 339° North 410 472 28,500 484 Climbing Denver Center
Sun 10:05:40 PM 41.6597 -105.3383 323° Northwest 416 479 29,000 484 Climbing Denver Center
Sun 10:06:42 PM 41.7456 -105.4325 321° Northwest 416 479 29,500 537 Climbing Denver Center
Sun 10:07:43 PM 41.8464 -105.5414 321° Northwest 416 479 30,100 537 Climbing Denver Center
Sun 10:08:45 PM 41.9331 -105.6353 321° Northwest 417 480 30,600 484 Climbing Denver Center
Sun 10:09:47 PM 42.0333 -105.7450 321° Northwest 416 479 31,100 484 Climbing Denver Center
Sun 10:10:49 PM 42.1178 -105.8394 320° Northwest 413 475 31,600 439 Climbing Denver Center
Sun 10:11:50 PM 42.2042 -105.9339 321° Northwest 416 479 32,000 195 Climbing Denver Center
Sun 10:12:52 PM 42.3042 -106.0453 321° Northwest 415 478 32,000  Level Denver Center
Sun 10:13:54 PM 42.3928 -106.1436 321° Northwest 425 489 32,000  Level Denver Center
Sun 10:14:56 PM 42.4936 -106.2583 320° Northwest 423 487 32,000  Level Denver Center
Sun 10:15:58 PM 42.5825 -106.3556 321° Northwest 427 491 32,000  Level Denver Center
Sun 10:16:59 PM 42.6856 -106.4719 320° Northwest 429 494 32,000 -293 Level Denver Center
Sun 10:18:01 PM 42.7722 -106.5703 320° Northwest 428 493 31,400 -726 Descending Denver Center
Sun 10:19:03 PM 42.8608 -106.6717 320° Northwest 432 497 30,500 -683 Descending Denver Center
Sun 10:20:04 PM 42.9614 -106.7847 321° Northwest 421 484 30,000 -244 Descending Denver Center
Sun 10:21:06 PM 43.0444 -106.8811 320° Northwest 413 475 30,000  Level Denver Center
Sun 10:21:54 PM 43.1233 -106.9733 320° Northwest 411 473 30,000  Level Salt Lake Center
Sun 10:22:56 PM 43.2097 -107.0728 320° Northwest 406 467 30,000  Level Salt Lake Center
Sun 10:23:57 PM 43.2958 -107.1725 320° Northwest 406 467 30,000  Level Salt Lake Center
Sun 10:24:59 PM 43.3817 -107.2719 320° Northwest 404 465 30,000  Level Salt Lake Center
Sun 10:26:00 PM 43.4669 -107.3711 320° Northwest 402 463 30,000  Level Salt Lake Center
Sun 10:27:02 PM 43.5517 -107.4706 320° Northwest 402 463 30,000  Level Salt Lake Center
Sun 10:28:03 PM 43.6364 -107.5728 319° Northwest 403 464 30,000  Level Salt Lake Center
Sun 10:29:05 PM 43.7222 -107.6731 320° Northwest 404 465 30,000  Level Salt Lake Center
Sun 10:30:06 PM 43.8253 -107.7961 319° Northwest 408 470 30,000  Level Salt Lake Center
Sun 10:31:08 PM 43.9119 -107.8981 320° Northwest 407 468 30,000  Level Salt Lake Center
Sun 10:32:09 PM 43.9975 -108.0025 319° Northwest 411 473 30,000 -829 Level Salt Lake Center
Sun 10:33:11 PM 44.0731 -108.1172 313° West 404 465 28,300 -2,000 Descending Salt Lake Center
Sun 10:34:12 PM 44.1442 -108.2258 312° West 383 441 25,900 -2,390 Descending Salt Lake Center
Sun 10:35:14 PM 44.2144 -108.3331 312° West 374 430 23,400 -2,439 Descending Salt Lake Center
Sun 10:36:15 PM 44.2803 -108.4364 312° West 361 415 20,900 -2,803 Descending Salt Lake Center
Sun 10:37:16 PM 44.3461 -108.5356 313° West 352 405 17,700 -3,317 Descending Salt Lake Center
Sun 10:38:18 PM 44.4072 -108.6311 312° West 339 390 14,100 -3,659 Descending Salt Lake Center
Sun 10:39:19 PM 44.4703 -108.7150 317° Northwest 328 377 10,200 -3,836 Descending Salt Lake Center

Login

Don't have an account? Register now (free) for customized features, flight alerts, and more!